Time;durP1;ratioP1;P1;durP2;ratioP2;P2;SDS_P1;SDS_P2;PMS_P1;PMS_P2;Temp;Humidity;BMP_temperature;BMP_pressure;BME280_temperature;BME280_humidity;BME280_pressure;Samples;Min_cycle;Max_cycle;Signal;HPM_P1;HPM_P2
2023/09/01 00:00:59;;;;;;;3.67;1.80;;;15.10;99.90;;;;;;5050216;28;20469;-66
2023/09/01 00:03:26;;;;;;;2.03;1.80;;;15.10;99.90;;;;;;5049984;28;20868;-66
2023/09/01 00:05:53;;;;;;;2.70;1.77;;;15.00;99.90;;;;;;5050252;28;20460;-67
2023/09/01 00:08:20;;;;;;;2.70;1.97;;;15.10;99.90;;;;;;5049874;28;20811;-67
2023/09/01 00:10:46;;;;;;;3.00;2.07;;;15.00;99.90;;;;;;5049674;28;20479;-66
2023/09/01 00:13:14;;;;;;;1.63;1.30;;;15.00;99.90;;;;;;5050650;28;20997;-66
2023/09/01 00:15:41;;;;;;;1.97;1.60;;;15.00;99.90;;;;;;5053479;28;20459;-67
2023/09/01 00:18:08;;;;;;;1.80;1.60;;;15.00;99.90;;;;;;5053616;28;20478;-67
2023/09/01 00:20:35;;;;;;;1.70;1.40;;;14.90;99.90;;;;;;5053675;28;20481;-66
2023/09/01 00:23:02;;;;;;;1.93;1.50;;;14.90;99.90;;;;;;5053541;28;21015;-67
2023/09/01 00:25:29;;;;;;;2.70;1.60;;;14.90;99.90;;;;;;5053902;28;20462;-67
2023/09/01 00:27:56;;;;;;;2.70;2.10;;;14.90;99.90;;;;;;5053206;28;20542;-67
2023/09/01 00:30:28;;;;;;;2.40;1.90;;;14.90;99.90;;;;;;5053878;28;20475;-67
2023/09/01 00:32:55;;;;;;;4.80;2.80;;;15.00;99.90;;;;;;5053201;28;21017;-66
2023/09/01 00:35:22;;;;;;;2.10;1.90;;;15.00;99.90;;;;;;5053805;28;20872;-67
2023/09/01 00:37:50;;;;;;;3.10;1.50;;;15.00;99.90;;;;;;5053531;28;20460;-67
2023/09/01 00:40:16;;;;;;;1.77;1.63;;;15.00;99.90;;;;;;5053660;28;20509;-66
2023/09/01 00:42:43;;;;;;;3.20;1.70;;;15.00;99.90;;;;;;5052923;28;20838;-66
2023/09/01 00:45:10;;;;;;;3.07;2.20;;;15.10;99.90;;;;;;5053372;28;20463;-66
2023/09/01 00:47:38;;;;;;;1.50;1.37;;;15.10;99.90;;;;;;5053231;28;20456;-66
2023/09/01 00:50:08;;;;;;;2.63;2.07;;;15.00;99.90;;;;;;5053328;28;20995;-67
2023/09/01 00:52:35;;;;;;;2.07;1.73;;;15.00;99.90;;;;;;5052992;28;20474;-66
2023/09/01 00:55:02;;;;;;;2.10;1.90;;;15.00;99.90;;;;;;5053188;28;20516;-67
2023/09/01 00:57:28;;;;;;;1.93;1.80;;;15.00;99.90;;;;;;5053498;28;20526;-67
2023/09/01 00:59:55;;;;;;;2.40;2.00;;;15.00;99.90;;;;;;5052471;28;21015;-68
2023/09/01 01:02:22;;;;;;;1.70;1.60;;;15.00;99.90;;;;;;5053129;28;20451;-68
2023/09/01 01:04:50;;;;;;;3.03;2.03;;;15.00;99.90;;;;;;5052787;28;20460;-68
2023/09/01 01:07:23;;;;;;;2.57;1.70;;;15.00;99.90;;;;;;5053204;28;20839;-68
2023/09/01 01:09:58;;;;;;;4.00;1.97;;;15.00;99.90;;;;;;5052831;28;20852;-66
2023/09/01 01:12:36;;;;;;;1.73;1.63;;;15.00;99.90;;;;;;5052953;28;20479;-67
2023/09/01 01:15:09;;;;;;;2.60;2.00;;;15.00;99.90;;;;;;5052856;28;20463;-68
2023/09/01 01:17:39;;;;;;;1.70;1.60;;;15.00;99.90;;;;;;5053167;28;21128;-68
2023/09/01 01:20:26;;;;;;;2.17;1.97;;;15.00;99.90;;;;;;5052791;28;20483;-68
2023/09/01 01:23:10;;;;;;;2.03;1.83;;;15.00;99.90;;;;;;5052354;28;20487;-68
2023/09/01 01:25:37;;;;;;;2.40;2.20;;;15.00;99.90;;;;;;5052222;28;20460;-67
2023/09/01 01:28:08;;;;;;;2.40;2.13;;;15.00;99.90;;;;;;5052628;28;20462;-67
2023/09/01 01:30:35;;;;;;;1.80;1.60;;;15.00;99.90;;;;;;5052875;28;20826;-67
2023/09/01 01:33:03;;;;;;;2.37;1.77;;;15.00;99.90;;;;;;5051886;28;20480;-68
2023/09/01 01:35:35;;;;;;;3.63;1.87;;;15.00;99.90;;;;;;5052511;28;20460;-68
2023/09/01 01:38:13;;;;;;;2.07;1.77;;;15.00;99.90;;;;;;5052060;28;20544;-68
2023/09/01 01:40:42;;;;;;;4.73;2.03;;;15.00;99.90;;;;;;5052554;28;20474;-67
2023/09/01 01:43:13;;;;;;;2.47;1.93;;;15.00;99.90;;;;;;5051982;28;20452;-67
2023/09/01 01:45:44;;;;;;;2.63;2.27;;;15.10;99.90;;;;;;5052211;28;20825;-67
2023/09/01 01:48:11;;;;;;;1.77;1.57;;;15.10;99.90;;;;;;5052174;28;20460;-68
2023/09/01 01:50:37;;;;;;;2.40;1.87;;;15.10;99.90;;;;;;5052365;28;20478;-67
2023/09/01 01:53:06;;;;;;;2.27;1.73;;;15.10;99.90;;;;;;5051550;28;20845;-68
2023/09/01 01:55:33;;;;;;;2.60;1.87;;;15.10;99.90;;;;;;5052432;28;20452;-68
2023/09/01 01:58:00;;;;;;;1.87;1.63;;;15.20;99.90;;;;;;5051757;28;20459;-68
2023/09/01 02:00:27;;;;;;;2.00;1.80;;;15.20;99.90;;;;;;5052162;28;20479;-68
2023/09/01 02:02:54;;;;;;;1.97;1.73;;;15.20;99.90;;;;;;5051477;28;20542;-67
2023/09/01 02:05:21;;;;;;;1.70;1.60;;;15.30;99.90;;;;;;5052173;28;20456;-68
2023/09/01 02:07:48;;;;;;;1.50;1.40;;;15.30;99.90;;;;;;5051610;28;20818;-68
2023/09/01 02:10:17;;;;;;;2.03;1.83;;;15.30;99.90;;;;;;5063706;28;20471;-67
2023/09/01 02:12:45;;;;;;;2.20;1.73;;;15.20;99.90;;;;;;5051506;28;20515;-68
2023/09/01 02:15:12;;;;;;;5.87;1.73;;;15.20;99.90;;;;;;5051860;28;20459;-67
2023/09/01 02:17:38;;;;;;;1.70;1.60;;;15.30;99.90;;;;;;5051999;28;21150;-68
2023/09/01 02:20:16;;;;;;;2.10;1.80;;;15.40;99.90;;;;;;5051377;28;20477;-67
2023/09/01 02:22:43;;;;;;;1.40;1.30;;;15.40;99.90;;;;;;5051343;28;20530;-67
2023/09/01 02:25:10;;;;;;;2.07;1.87;;;15.30;99.90;;;;;;5051373;28;20466;-68
2023/09/01 02:27:42;;;;;;;1.90;1.70;;;15.30;99.90;;;;;;5051689;28;20462;-67
2023/09/01 02:30:10;;;;;;;1.63;1.53;;;15.30;99.90;;;;;;5051880;28;20852;-68
2023/09/01 02:32:37;;;;;;;1.70;1.60;;;15.30;99.90;;;;;;5051231;28;20486;-67
2023/09/01 02:35:06;;;;;;;3.33;1.83;;;15.40;99.90;;;;;;5051131;28;20463;-67
2023/09/01 02:37:33;;;;;;;2.00;1.60;;;15.30;99.90;;;;;;5051457;28;20463;-68
2023/09/01 02:40:00;;;;;;;3.43;1.83;;;15.30;99.90;;;;;;5050738;28;20475;-68
2023/09/01 02:42:27;;;;;;;3.87;1.73;;;15.30;99.90;;;;;;5051189;28;20844;-68
2023/09/01 02:44:55;;;;;;;1.93;1.50;;;15.30;99.90;;;;;;5051011;28;20459;-68
2023/09/01 02:47:22;;;;;;;2.53;1.87;;;15.30;99.90;;;;;;5051359;28;20456;-68
2023/09/01 02:49:48;;;;;;;2.00;1.77;;;15.40;99.90;;;;;;5050916;28;20480;-68
2023/09/01 02:52:15;;;;;;;1.63;1.43;;;15.40;99.90;;;;;;5050831;28;20452;-68
2023/09/01 02:54:42;;;;;;;2.20;1.53;;;15.40;99.90;;;;;;5051024;28;20455;-68
2023/09/01 02:57:09;;;;;;;1.60;1.47;;;15.40;99.90;;;;;;5050752;28;20452;-67
2023/09/01 02:59:35;;;;;;;1.77;1.10;;;15.40;99.90;;;;;;5050668;28;20994;-68
2023/09/01 03:02:04;;;;;;;2.40;1.60;;;15.40;99.90;;;;;;5050330;28;20531;-68
2023/09/01 03:04:31;;;;;;;2.33;1.80;;;15.40;99.90;;;;;;5050870;28;20965;-68
2023/09/01 03:06:57;;;;;;;2.90;1.50;;;15.40;99.90;;;;;;5050584;28;20460;-68
2023/09/01 03:09:24;;;;;;;4.30;1.80;;;15.40;99.90;;;;;;5050432;28;20489;-68
2023/09/01 03:11:51;;;;;;;2.03;1.60;;;15.50;99.90;;;;;;5050369;28;20460;-68
2023/09/01 03:14:17;;;;;;;1.80;1.60;;;15.50;99.90;;;;;;5050812;28;20483;-68
2023/09/01 03:16:44;;;;;;;3.50;1.60;;;15.50;99.90;;;;;;5050720;28;20873;-68
2023/09/01 03:19:12;;;;;;;1.97;1.40;;;15.50;99.90;;;;;;5050173;28;20480;-68
2023/09/01 03:21:40;;;;;;;4.50;1.50;;;15.50;99.90;;;;;;5050418;28;20935;-67
2023/09/01 03:24:07;;;;;;;1.60;1.33;;;15.50;99.90;;;;;;5050142;28;20521;-68
2023/09/01 03:26:34;;;;;;;1.60;1.50;;;15.50;99.90;;;;;;5050479;28;20782;-68
2023/09/01 03:29:02;;;;;;;1.90;1.73;;;15.50;99.90;;;;;;5049650;28;20476;-68
2023/09/01 03:31:29;;;;;;;2.47;1.83;;;15.50;99.90;;;;;;5059729;28;20461;-68
2023/09/01 03:33:56;;;;;;;5.17;1.53;;;15.50;99.90;;;;;;5065802;28;20508;-68
2023/09/01 03:36:24;;;;;;;4.40;2.00;;;15.50;99.90;;;;;;5062872;28;20456;-68
2023/09/01 03:38:50;;;;;;;3.43;1.70;;;15.50;99.90;;;;;;5061547;28;20471;-67
2023/09/01 03:41:17;;;;;;;2.20;1.97;;;15.50;99.90;;;;;;5057357;28;20467;-68
2023/09/01 03:43:44;;;;;;;1.93;1.73;;;15.50;99.90;;;;;;5058532;28;20460;-68
2023/09/01 03:46:10;;;;;;;1.40;1.30;;;15.50;99.90;;;;;;5059719;28;20455;-68
2023/09/01 03:48:37;;;;;;;2.70;2.03;;;15.60;99.90;;;;;;5059017;28;20980;-68
2023/09/01 03:51:09;;;;;;;1.50;1.40;;;15.60;99.90;;;;;;5058156;28;20490;-68
2023/09/01 03:53:38;;;;;;;2.00;1.50;;;15.60;99.90;;;;;;5067072;28;20533;-68
2023/09/01 03:56:08;;;;;;;1.83;1.70;;;15.60;99.90;;;;;;5061929;28;20459;-68
2023/09/01 03:58:35;;;;;;;3.03;1.77;;;15.60;99.90;;;;;;5059203;28;20979;-67
2023/09/01 04:01:01;;;;;;;1.40;1.30;;;15.60;99.90;;;;;;5060137;28;20463;-68
2023/09/01 04:03:28;;;;;;;1.57;1.47;;;15.60;99.90;;;;;;5059549;28;20474;-67
2023/09/01 04:05:57;;;;;;;1.70;1.60;;;15.60;99.90;;;;;;5063757;28;20462;-68
2023/09/01 04:08:24;;;;;;;1.67;1.57;;;15.60;99.90;;;;;;5056969;28;20946;-68
2023/09/01 04:10:52;;;;;;;2.00;1.70;;;15.60;99.90;;;;;;5062997;28;20483;-68
2023/09/01 04:13:19;;;;;;;1.50;1.27;;;15.60;99.90;;;;;;5065797;28;20487;-67
2023/09/01 04:15:45;;;;;;;2.83;1.40;;;15.60;99.90;;;;;;5060607;28;20455;-67
2023/09/01 04:18:12;;;;;;;2.00;1.80;;;15.60;99.90;;;;;;5061172;28;20460;-68
2023/09/01 04:20:39;;;;;;;1.83;1.60;;;15.60;99.90;;;;;;5060752;28;20486;-67
2023/09/01 04:23:05;;;;;;;1.60;1.30;;;15.60;99.90;;;;;;5058895;28;20455;-67
2023/09/01 04:25:34;;;;;;;2.72;1.60;;;15.50;99.90;;;;;;5068824;28;20940;-67
2023/09/01 04:28:02;;;;;;;3.33;1.70;;;15.50;99.90;;;;;;5065150;28;20204;-68
2023/09/01 04:30:30;;;;;;;1.63;1.50;;;15.50;99.90;;;;;;5054462;28;20478;-67
2023/09/01 04:32:57;;;;;;;1.40;1.30;;;15.60;99.90;;;;;;5057982;28;20462;-67
2023/09/01 04:35:24;;;;;;;1.43;1.20;;;15.60;99.90;;;;;;5068865;28;20462;-68
2023/09/01 04:37:51;;;;;;;1.63;1.53;;;15.60;99.90;;;;;;5069437;28;20477;-68
2023/09/01 04:40:17;;;;;;;2.40;2.10;;;15.60;99.90;;;;;;5069423;28;20478;-67
2023/09/01 04:42:44;;;;;;;1.70;1.60;;;15.60;99.90;;;;;;5057659;28;20791;-67
2023/09/01 04:45:12;;;;;;;3.57;1.60;;;15.60;99.90;;;;;;5053767;28;20447;-68
2023/09/01 04:47:39;;;;;;;1.60;1.43;;;15.60;99.90;;;;;;5058303;28;20456;-68
2023/09/01 04:50:06;;;;;;;1.50;1.20;;;15.60;99.90;;;;;;5057864;28;20487;-68
2023/09/01 04:52:33;;;;;;;1.57;1.47;;;15.60;99.90;;;;;;5049474;28;20451;-68
2023/09/01 04:55:00;;;;;;;1.70;1.50;;;15.60;99.90;;;;;;5049482;28;20867;-67
2023/09/01 04:57:27;;;;;;;1.83;1.40;;;15.60;99.90;;;;;;5049699;28;20451;-67
2023/09/01 05:02:21;;;;;;;1.30;1.20;;;15.60;99.90;;;;;;5144301;22;20490;-67
2023/09/01 05:04:48;;;;;;;2.03;1.60;;;15.60;99.90;;;;;;5073072;28;20462;-67
2023/09/01 05:07:15;;;;;;;1.40;1.30;;;15.60;99.90;;;;;;5092083;28;20468;-68
2023/09/01 05:09:41;;;;;;;1.63;1.50;;;15.70;99.90;;;;;;5093117;28;20480;-68
2023/09/01 05:12:08;;;;;;;2.33;1.60;;;15.70;99.90;;;;;;5091677;28;20829;-68
2023/09/01 05:14:35;;;;;;;2.33;1.37;;;15.70;99.90;;;;;;5072686;28;20492;-68
2023/09/01 05:17:02;;;;;;;1.93;1.50;;;15.70;99.90;;;;;;5072750;28;20450;-68
2023/09/01 05:19:31;;;;;;;1.70;1.60;;;15.70;99.90;;;;;;5072242;28;21068;-67
2023/09/01 05:21:57;;;;;;;1.60;1.30;;;15.80;99.90;;;;;;5071342;28;20455;-68
2023/09/01 05:24:24;;;;;;;1.20;0.80;;;15.80;99.90;;;;;;5071742;28;20451;-68
2023/09/01 05:26:51;;;;;;;1.50;1.17;;;15.80;99.90;;;;;;5072835;28;20455;-68
2023/09/01 05:29:17;;;;;;;2.40;1.33;;;15.80;99.90;;;;;;5072311;28;20541;-67
2023/09/01 05:31:44;;;;;;;1.67;1.33;;;15.80;99.90;;;;;;5072207;28;20455;-67
2023/09/01 05:34:11;;;;;;;3.70;1.50;;;15.80;99.90;;;;;;5072537;28;20493;-68
2023/09/01 05:36:39;;;;;;;1.63;1.20;;;15.80;99.90;;;;;;5072135;28;20463;-67
2023/09/01 05:39:06;;;;;;;1.87;1.30;;;15.80;99.90;;;;;;5071859;28;20863;-68
2023/09/01 05:41:32;;;;;;;1.40;1.30;;;15.80;99.90;;;;;;5071704;28;20462;-67
2023/09/01 05:43:59;;;;;;;1.80;1.60;;;15.80;99.90;;;;;;5072509;28;20451;-68
2023/09/01 05:46:26;;;;;;;1.30;1.20;;;15.80;99.90;;;;;;5071613;28;20969;-68
2023/09/01 05:48:53;;;;;;;1.50;1.40;;;15.80;99.90;;;;;;5071758;28;20478;-67
2023/09/01 05:51:19;;;;;;;2.10;1.30;;;15.80;99.90;;;;;;5071869;28;20454;-68
2023/09/01 05:53:47;;;;;;;3.30;1.30;;;15.80;99.90;;;;;;5071702;28;21199;-68
2023/09/01 05:56:14;;;;;;;2.43;1.40;;;15.70;99.90;;;;;;5068053;28;20459;-67
2023/09/01 05:58:41;;;;;;;1.10;1.00;;;15.80;99.90;;;;;;5071567;28;20533;-68
2023/09/01 06:01:08;;;;;;;1.77;1.47;;;15.70;99.90;;;;;;5072070;28;20451;-68
2023/09/01 06:03:34;;;;;;;2.10;1.33;;;15.70;99.90;;;;;;5071561;28;20447;-68
2023/09/01 06:06:01;;;;;;;2.07;1.40;;;15.80;99.90;;;;;;5071745;28;20462;-68
2023/09/01 06:08:28;;;;;;;2.23;1.50;;;15.80;99.90;;;;;;5071190;28;20451;-67
2023/09/01 06:11:04;;;;;;;2.33;1.60;;;15.80;99.90;;;;;;5071644;28;20454;-68
2023/09/01 06:13:30;;;;;;;1.77;1.30;;;15.70;99.90;;;;;;5070891;28;20458;-67
2023/09/01 06:15:57;;;;;;;1.80;1.50;;;15.70;99.90;;;;;;5072103;28;20815;-66
2023/09/01 06:18:24;;;;;;;1.77;1.63;;;15.70;99.90;;;;;;5071067;28;20463;-66
2023/09/01 06:20:51;;;;;;;1.50;1.33;;;15.70;99.90;;;;;;5071401;28;20470;-67
2023/09/01 06:23:18;;;;;;;2.13;1.60;;;15.70;99.90;;;;;;5071086;28;20587;-67
2023/09/01 06:25:45;;;;;;;1.70;1.13;;;15.70;99.90;;;;;;5071260;28;20950;-67
2023/09/01 06:28:13;;;;;;;1.73;1.30;;;15.70;99.90;;;;;;5071278;28;20459;-66
2023/09/01 06:30:41;;;;;;;1.30;1.10;;;15.70;99.90;;;;;;5071306;28;20475;-67
2023/09/01 06:33:09;;;;;;;1.30;1.10;;;15.60;99.90;;;;;;5071132;28;20962;-67
2023/09/01 06:35:36;;;;;;;1.63;1.33;;;15.70;99.90;;;;;;5071106;28;20574;-67
2023/09/01 06:38:05;;;;;;;1.33;1.23;;;15.70;99.90;;;;;;5078940;28;20458;-66
2023/09/01 06:40:32;;;;;;;1.60;1.17;;;15.80;99.90;;;;;;5091081;28;20527;-66
2023/09/01 06:42:59;;;;;;;1.30;1.20;;;15.80;99.90;;;;;;5091078;28;20457;-67
2023/09/01 06:45:27;;;;;;;2.57;1.30;;;15.80;99.90;;;;;;5091014;28;20450;-67
2023/09/01 06:47:55;;;;;;;1.83;1.27;;;15.90;99.90;;;;;;5091389;28;20842;-66
2023/09/01 06:50:22;;;;;;;1.40;1.10;;;15.90;99.90;;;;;;5090929;28;20469;-67
2023/09/01 06:52:50;;;;;;;1.30;1.20;;;15.90;99.90;;;;;;5091200;28;20833;-67
2023/09/01 06:55:17;;;;;;;1.10;1.00;;;15.90;99.90;;;;;;5090982;28;20482;-67
2023/09/01 06:57:44;;;;;;;1.30;1.20;;;15.90;99.90;;;;;;5090638;28;20461;-67
2023/09/01 07:00:12;;;;;;;1.23;1.10;;;15.90;99.90;;;;;;5090837;28;20988;-67
2023/09/01 07:02:40;;;;;;;3.30;1.50;;;15.90;99.90;;;;;;5086748;28;20490;-67
2023/09/01 07:05:07;;;;;;;1.27;1.07;;;15.90;99.90;;;;;;5070794;28;20459;-66
2023/09/01 07:07:34;;;;;;;1.30;0.93;;;16.00;99.90;;;;;;5082329;28;20465;-66
2023/09/01 07:10:01;;;;;;;1.57;1.47;;;16.00;99.90;;;;;;5090944;28;20484;-67
2023/09/01 07:12:28;;;;;;;1.20;1.07;;;16.00;99.90;;;;;;5090491;28;20821;-66
2023/09/01 07:14:54;;;;;;;1.53;1.10;;;16.00;99.90;;;;;;5090873;28;20485;-67
2023/09/01 07:17:21;;;;;;;1.97;1.73;;;16.00;99.90;;;;;;5091009;28;20461;-66
2023/09/01 07:19:49;;;;;;;1.63;1.10;;;16.00;99.90;;;;;;5090946;28;20481;-66
2023/09/01 07:22:15;;;;;;;2.40;2.10;;;16.00;99.90;;;;;;5090129;28;20519;-66
2023/09/01 07:24:42;;;;;;;3.83;1.57;;;16.00;99.90;;;;;;5090703;28;20460;-67
2023/09/01 07:27:09;;;;;;;1.40;1.20;;;16.00;99.90;;;;;;5091034;28;20458;-66
2023/09/01 07:29:36;;;;;;;1.93;1.57;;;16.10;99.90;;;;;;5090319;28;20485;-66
2023/09/01 07:32:03;;;;;;;1.43;1.27;;;16.10;99.90;;;;;;5090486;28;20461;-66
2023/09/01 07:34:30;;;;;;;1.53;1.23;;;16.10;99.90;;;;;;5070950;28;21008;-67
2023/09/01 07:36:58;;;;;;;1.60;1.40;;;16.10;99.90;;;;;;5085476;28;20844;-67
2023/09/01 07:39:25;;;;;;;1.93;1.77;;;16.20;99.90;;;;;;5081939;28;20473;-67
2023/09/01 07:41:52;;;;;;;1.77;1.50;;;16.30;99.90;;;;;;5090386;28;20458;-67
2023/09/01 07:44:20;;;;;;;1.67;1.50;;;16.40;99.90;;;;;;5090510;28;20918;-67
2023/09/01 07:46:47;;;;;;;2.07;1.83;;;16.50;99.90;;;;;;5090478;28;20545;-67
2023/09/01 07:49:13;;;;;;;2.13;1.93;;;16.50;99.90;;;;;;5090300;28;20870;-67
2023/09/01 07:51:40;;;;;;;1.70;1.27;;;16.60;99.90;;;;;;5090052;28;20461;-67
2023/09/01 07:54:08;;;;;;;1.40;1.30;;;16.70;99.90;;;;;;5090515;28;20457;-67
2023/09/01 07:56:35;;;;;;;1.33;1.23;;;16.80;99.90;;;;;;5090254;28;20833;-67
2023/09/01 07:59:02;;;;;;;1.87;1.23;;;16.90;99.90;;;;;;5090178;28;20485;-67
2023/09/01 08:01:29;;;;;;;1.40;1.30;;;17.00;99.90;;;;;;5079507;28;20970;-67
2023/09/01 08:03:59;;;;;;;2.10;1.33;;;17.10;99.90;;;;;;5070015;28;20529;-67
2023/09/01 08:06:26;;;;;;;1.37;1.20;;;17.20;99.90;;;;;;5071220;28;20860;-66
2023/09/01 08:08:52;;;;;;;1.73;1.43;;;17.20;99.90;;;;;;5089919;28;20535;-66
2023/09/01 08:11:20;;;;;;;1.63;1.40;;;17.30;99.90;;;;;;5089950;28;20461;-67
2023/09/01 08:13:47;;;;;;;2.77;1.40;;;17.30;99.90;;;;;;5077418;28;20467;-67
2023/09/01 08:16:15;;;;;;;1.30;1.10;;;17.30;99.90;;;;;;5069972;28;20480;-67
2023/09/01 08:18:42;;;;;;;1.30;0.93;;;17.40;99.90;;;;;;5069522;28;20456;-67
2023/09/01 08:21:09;;;;;;;1.70;1.47;;;17.50;99.90;;;;;;5070476;28;20472;-66
2023/09/01 08:23:36;;;;;;;1.73;1.20;;;17.70;99.90;;;;;;5069202;28;20454;-67
2023/09/01 08:26:05;;;;;;;1.40;1.30;;;17.70;99.90;;;;;;5070211;28;20806;-67
2023/09/01 08:28:33;;;;;;;2.13;1.30;;;17.80;99.90;;;;;;5088059;28;20456;-67
2023/09/01 08:31:01;;;;;;;1.20;1.10;;;17.90;99.90;;;;;;5090164;28;20461;-66
2023/09/01 08:33:28;;;;;;;1.50;1.40;;;18.00;99.90;;;;;;5089334;28;20454;-67
2023/09/01 08:35:54;;;;;;;1.33;1.07;;;18.10;99.90;;;;;;5093931;28;20478;-67
2023/09/01 08:38:21;;;;;;;1.00;0.90;;;18.10;99.90;;;;;;5093649;28;20457;-67
2023/09/01 08:40:48;;;;;;;1.57;1.10;;;18.20;99.90;;;;;;5093727;28;20872;-66
2023/09/01 08:43:16;;;;;;;1.40;1.17;;;18.20;99.90;;;;;;5093495;28;20458;-67
2023/09/01 08:45:45;;;;;;;1.13;1.03;;;18.20;99.90;;;;;;5081942;28;20483;-66
2023/09/01 08:48:12;;;;;;;1.13;0.93;;;18.30;99.90;;;;;;5073404;28;20456;-67
2023/09/01 08:50:39;;;;;;;1.03;0.93;;;18.30;99.90;;;;;;5073364;28;20975;-67
2023/09/01 08:53:06;;;;;;;1.50;1.27;;;18.40;99.90;;;;;;5073213;28;20471;-67
2023/09/01 08:55:33;;;;;;;1.17;1.03;;;18.50;99.90;;;;;;5076285;28;20472;-67
2023/09/01 08:58:00;;;;;;;1.87;1.20;;;18.50;99.90;;;;;;5077175;28;20467;-67
2023/09/01 09:00:28;;;;;;;1.27;1.00;;;18.50;99.90;;;;;;5083562;28;20487;-66
2023/09/01 09:02:56;;;;;;;1.30;0.90;;;18.50;99.90;;;;;;5072147;28;20460;-67
2023/09/01 09:05:24;;;;;;;1.43;1.13;;;18.50;99.90;;;;;;5073033;28;20447;-67
2023/09/01 09:08:01;;;;;;;1.50;1.17;;;18.60;99.90;;;;;;5084625;28;20459;-66
2023/09/01 09:10:35;;;;;;;1.30;1.17;;;18.90;99.90;;;;;;5090557;28;20544;-66
2023/09/01 09:13:03;;;;;;;1.67;1.57;;;19.30;99.90;;;;;;5092483;28;20452;-67
2023/09/01 09:15:29;;;;;;;1.43;1.30;;;19.60;99.90;;;;;;5092240;28;20941;-67
2023/09/01 09:17:58;;;;;;;4.07;1.67;;;19.70;99.90;;;;;;5092650;28;20452;-67
2023/09/01 09:20:38;;;;;;;2.33;1.37;;;19.80;99.90;;;;;;5075538;28;20481;-66
2023/09/01 09:23:05;;;;;;;1.43;1.27;;;19.90;99.90;;;;;;5072411;28;20861;-67
2023/09/01 09:25:33;;;;;;;1.77;1.30;;;19.80;99.90;;;;;;5071830;28;20454;-67
2023/09/01 09:28:02;;;;;;;1.33;1.23;;;19.70;99.90;;;;;;5072070;28;20455;-67
2023/09/01 09:30:30;;;;;;;1.63;1.53;;;19.90;99.90;;;;;;5071812;28;20478;-67
2023/09/01 09:33:05;;;;;;;1.83;1.50;;;19.90;99.90;;;;;;5072135;28;20468;-67
2023/09/01 09:35:34;;;;;;;1.70;1.47;;;19.90;99.90;;;;;;5072191;28;21035;-66
2023/09/01 09:38:02;;;;;;;1.20;1.10;;;19.90;99.90;;;;;;5070493;28;20468;-65
2023/09/01 09:40:29;;;;;;;1.27;1.17;;;19.80;99.90;;;;;;5079358;28;21025;-67
2023/09/01 09:42:58;;;;;;;1.33;1.23;;;19.90;99.90;;;;;;5091682;28;20461;-67
2023/09/01 09:45:28;;;;;;;2.03;1.07;;;19.80;99.90;;;;;;5081415;28;20540;-66
2023/09/01 09:47:57;;;;;;;1.43;1.33;;;19.80;99.90;;;;;;5070736;28;20964;-67
2023/09/01 09:50:25;;;;;;;1.50;1.40;;;19.60;99.90;;;;;;5071375;28;20474;-66
2023/09/01 09:52:57;;;;;;;1.40;1.30;;;19.60;99.90;;;;;;5071012;28;20462;-67
2023/09/01 09:55:27;;;;;;;1.70;1.20;;;19.50;99.90;;;;;;5070803;28;20490;-67
2023/09/01 09:58:05;;;;;;;1.43;1.30;;;19.40;99.90;;;;;;5062688;28;20451;-67
2023/09/01 10:00:33;;;;;;;1.70;1.20;;;19.30;99.90;;;;;;5071113;28;20492;-66
2023/09/01 10:03:03;;;;;;;1.30;1.00;;;19.20;99.90;;;;;;5069187;28;20474;-66
2023/09/01 10:05:33;;;;;;;1.93;1.40;;;19.20;99.90;;;;;;5071367;28;20948;-67
2023/09/01 10:08:03;;;;;;;1.57;1.30;;;19.20;99.90;;;;;;5071692;28;20610;-67
2023/09/01 10:10:33;;;;;;;1.60;1.40;;;19.20;99.90;;;;;;5071165;28;20489;-67
2023/09/01 10:13:02;;;;;;;2.57;1.60;;;19.30;99.90;;;;;;5071178;28;20474;-67
2023/09/01 10:15:31;;;;;;;1.20;1.10;;;19.30;99.90;;;;;;5071205;28;20939;-67
2023/09/01 10:17:59;;;;;;;1.20;1.10;;;19.30;99.90;;;;;;5078897;28;20549;-67
2023/09/01 10:20:25;;;;;;;1.83;1.40;;;19.30;99.90;;;;;;5071380;28;20870;-67
2023/09/01 10:22:54;;;;;;;1.40;1.30;;;19.40;99.90;;;;;;5070642;28;20462;-67
2023/09/01 10:25:22;;;;;;;1.83;1.60;;;19.40;99.90;;;;;;5071316;28;20983;-67
2023/09/01 10:28:04;;;;;;;1.83;1.63;;;19.40;99.90;;;;;;5070420;28;20462;-67
2023/09/01 10:30:32;;;;;;;1.80;1.27;;;19.40;99.90;;;;;;5071107;28;21004;-67
2023/09/01 10:33:09;;;;;;;1.50;1.30;;;19.50;99.90;;;;;;5083488;28;20723;-67
2023/09/01 10:35:41;;;;;;;1.53;1.13;;;19.50;99.90;;;;;;5091074;28;20466;-67
2023/09/01 10:38:15;;;;;;;1.27;1.17;;;19.50;99.90;;;;;;5091404;28;20464;-67
2023/09/01 10:40:43;;;;;;;1.80;1.60;;;19.50;99.90;;;;;;5090311;28;20585;-67
2023/09/01 10:43:11;;;;;;;1.97;1.47;;;19.60;99.90;;;;;;5069188;28;20818;-67
2023/09/01 10:45:38;;;;;;;2.00;1.90;;;19.60;99.90;;;;;;5058973;28;20458;-67
2023/09/01 10:48:11;;;;;;;1.70;1.50;;;19.60;99.90;;;;;;5070966;28;20548;-67
2023/09/01 10:50:41;;;;;;;2.13;1.40;;;19.60;99.90;;;;;;5071690;28;20481;-67
2023/09/01 10:53:34;;;;;;;1.93;1.57;;;19.70;99.90;;;;;;5089922;28;20454;-67
2023/09/01 10:56:12;;;;;;;2.10;1.50;;;19.70;99.90;;;;;;5088139;28;21057;-67
2023/09/01 10:58:40;;;;;;;1.90;1.47;;;19.80;99.90;;;;;;5089162;28;20813;-67
2023/09/01 11:01:30;;;;;;;2.00;1.53;;;19.80;99.90;;;;;;5157834;22;20479;-68
2023/09/01 11:04:19;;;;;;;1.40;1.20;;;19.90;99.90;;;;;;5054630;28;20822;-67
2023/09/01 11:07:06;;;;;;;2.53;1.40;;;20.00;99.90;;;;;;5070455;28;20714;-68
2023/09/01 11:09:52;;;;;;;1.33;1.23;;;19.90;99.90;;;;;;5070380;28;20565;-66
2023/09/01 11:12:19;;;;;;;1.50;1.30;;;19.90;99.90;;;;;;5070450;28;20942;-67
2023/09/01 11:14:57;;;;;;;2.50;1.47;;;19.90;99.90;;;;;;5070170;28;20453;-68
2023/09/01 11:17:40;;;;;;;1.57;1.23;;;20.00;99.90;;;;;;5070763;28;20954;-68
2023/09/01 11:20:09;;;;;;;2.00;1.70;;;20.00;99.90;;;;;;5070592;28;20548;-68
2023/09/01 11:22:40;;;;;;;1.40;1.20;;;20.20;99.90;;;;;;5070247;28;20461;-67
2023/09/01 11:25:16;;;;;;;2.00;1.57;;;20.40;99.90;;;;;;5070509;28;20458;-69
2023/09/01 11:27:47;;;;;;;2.00;1.50;;;20.40;99.90;;;;;;5070272;28;20825;-68
2023/09/01 11:30:16;;;;;;;1.30;1.20;;;20.50;99.90;;;;;;5070372;28;20471;-68
2023/09/01 11:32:43;;;;;;;1.20;1.10;;;20.60;99.90;;;;;;5070254;28;20469;-68
2023/09/01 11:35:21;;;;;;;1.10;1.00;;;20.70;99.90;;;;;;5070257;28;20462;-68
2023/09/01 11:37:48;;;;;;;1.53;1.43;;;20.90;99.90;;;;;;5070208;28;20533;-68
2023/09/01 11:40:17;;;;;;;1.10;0.90;;;21.20;99.90;;;;;;5070467;28;20482;-69
2023/09/01 11:42:45;;;;;;;3.10;1.20;;;21.30;99.90;;;;;;5069968;28;20478;-68
2023/09/01 11:45:28;;;;;;;1.73;1.40;;;21.40;99.90;;;;;;5070348;28;20456;-68
2023/09/01 11:47:55;;;;;;;1.63;1.03;;;21.80;99.90;;;;;;5069909;28;20456;-68
2023/09/01 11:50:21;;;;;;;1.57;1.37;;;22.00;99.90;;;;;;5070322;28;20480;-67
2023/09/01 11:52:53;;;;;;;1.50;1.33;;;21.90;99.90;;;;;;5069928;28;20464;-68
2023/09/01 11:55:36;;;;;;;1.63;1.20;;;21.80;99.90;;;;;;5070157;28;20532;-68
2023/09/01 11:58:04;;;;;;;3.13;1.33;;;21.80;99.90;;;;;;5053754;28;20524;-65
2023/09/01 12:00:38;;;;;;;1.57;1.17;;;22.00;99.90;;;;;;5070093;28;20481;-68
2023/09/01 12:03:05;;;;;;;1.30;1.17;;;22.30;99.90;;;;;;5069476;28;20490;-68
2023/09/01 12:05:34;;;;;;;1.60;1.37;;;22.70;99.90;;;;;;5070228;28;20450;-68
2023/09/01 12:08:02;;;;;;;2.10;1.40;;;23.00;99.90;;;;;;5069626;28;20817;-67
2023/09/01 12:10:31;;;;;;;1.50;1.20;;;23.30;99.90;;;;;;5073744;28;20489;-68
2023/09/01 12:13:07;;;;;;;1.37;1.10;;;23.50;99.90;;;;;;5073593;28;20516;-68
2023/09/01 12:15:34;;;;;;;1.50;1.03;;;23.50;99.90;;;;;;5074188;28;20859;-68
2023/09/01 12:18:28;;;;;;;1.33;1.20;;;23.40;99.90;;;;;;5073611;28;20459;-67
2023/09/01 12:20:55;;;;;;;2.23;1.20;;;23.20;99.90;;;;;;5073842;28;20560;-68
2023/09/01 12:23:26;;;;;;;2.77;1.50;;;23.10;99.90;;;;;;5073772;28;20465;-68
2023/09/01 12:25:55;;;;;;;1.60;1.17;;;23.30;99.90;;;;;;5073703;28;20875;-68
2023/09/01 12:28:21;;;;;;;2.60;1.10;;;23.30;99.90;;;;;;5073674;28;20476;-67
2023/09/01 12:30:48;;;;;;;1.63;1.20;;;23.20;99.90;;;;;;5073727;28;20493;-67
2023/09/01 12:33:15;;;;;;;1.50;1.00;;;23.00;99.90;;;;;;5073299;28;20454;-67
2023/09/01 12:35:42;;;;;;;1.40;0.90;;;22.70;99.90;;;;;;5068067;28;20493;-67
2023/09/01 12:38:08;;;;;;;1.37;1.00;;;22.60;99.90;;;;;;5073014;28;20469;-68
2023/09/01 12:40:35;;;;;;;1.20;0.90;;;22.30;99.90;;;;;;5073482;28;20481;-68
2023/09/01 12:43:04;;;;;;;2.70;1.30;;;22.20;99.90;;;;;;5071789;28;20466;-68
2023/09/01 12:45:31;;;;;;;1.20;1.10;;;22.00;99.90;;;;;;5070078;28;20461;-68
2023/09/01 12:47:59;;;;;;;1.50;1.20;;;21.90;99.90;;;;;;5072607;28;20461;-68
2023/09/01 12:50:26;;;;;;;1.20;1.03;;;21.80;99.90;;;;;;5073030;28;20486;-67
2023/09/01 12:52:53;;;;;;;1.60;1.30;;;21.80;99.90;;;;;;5072697;28;20469;-67
2023/09/01 12:55:20;;;;;;;1.43;1.07;;;21.80;99.90;;;;;;5072820;28;20452;-67
2023/09/01 12:57:46;;;;;;;2.40;1.30;;;21.80;99.90;;;;;;5072439;28;20475;-66